Olympia Regional Airport
KOLM : now visible

Airfield :











YOU CAN JOIN US ON...

 
LOGIN :

Register | Disclaimer

   EN    FR    IT 

 









Legend :    VFR   Marginal VFR   IFR   Intensive IFR   Very Intensive IFR
Visi :
Ceiling :
>= 8 km
>= 3000ft
5 to 8 km
1000 to 3000 ft
1500m to 5 km
500 to 1000 ft
800 to 1500m
200 to 500 ft
< 800m
< 200 ft
Symbols :   Thunderstorms  Fog  Heavy snow  Heavy precipitations  Wind > 20 kt






- Airport Elevation : 209 ft
- IATA code : OLM


KOLM - Olympia Regional

CURRENT METAR :
  • 220154Z 19013KT 8SM -RA FEW029 BKN040 OVC085 07/05 A2980 RMK AO2 RAB34 SLP092 P0001 T00720050

EXPIRED METARs :
  • 220056Z 18013KT 10SM FEW025 SCT037 BKN047 07/04 A2979 RMK AO2 T00670044
  • 220018Z 19006KT 3SM RA BR FEW017 BKN028 OVC035 07/05 A2980 RMK AO2 RAB03 P0003 T00670050
  • 212354Z 19014G21KT 10SM FEW012 SCT031 OVC048 07/04 A2978 RMK AO2 RAE05 SLP086 P0001 60036 T00670044 10083 20067 53014
  • 212334Z 19013G25KT 10SM SCT031 BKN039 BKN050 07/04 A2978 RMK AO2 RAE05 P0001 T00670044

TAF KOLM
Valid from the 22 at 02:00 until the 23 at 00:00 UTC


220149Z 2202/2224 18013G20KT P6SM FEW025 SCT035 BKN045
TEMPO 2202/2206 4SM -SHRA BR BKN025 OVC035
FM220600 21012KT 5SM BR SCT020 BKN050
FM221300 20007KT 2SM -RA BR BKN007 OVC015



MET'MAP, your aeronautical weather chart ! - Copyright ORBIFLY December 2007 - Disclaimer

ORBIFLY MET'MAP TEAM :

Programming & Development : Alexandra Zaïnal
Concept & original design : Baudouin d'Aumeries
Assistance for programming : Marc-Olivier Méhu
Technical & hardware support : Manuel Goepfert

Contact : metmap@orbifly.com




SOURCES & CREDITS :

   NOAA       Earth
Advisory